Time;durP1;ratioP1;P1;durP2;ratioP2;P2;SDS_P1;SDS_P2;PMS_P1;PMS_P2;Temp;Humidity;BMP_temperature;BMP_pressure;BME280_temperature;BME280_humidity;BME280_pressure;Samples;Min_cycle;Max_cycle;Signal;HPM_P1;HPM_P2
2021/12/28 00:00:16;;;;;;;26.93;19.73;;;8.60;99.90;;;;;;5009842;28;20372;-70
2021/12/28 00:02:44;;;;;;;29.43;20.47;;;8.50;99.90;;;;;;5009814;28;20035;-70
2021/12/28 00:05:10;;;;;;;27.37;18.53;;;8.70;99.90;;;;;;5010161;28;20021;-70
2021/12/28 00:07:37;;;;;;;25.03;18.13;;;8.50;99.90;;;;;;5010027;28;20033;-71
2021/12/28 00:10:08;;;;;;;30.37;18.30;;;8.50;99.90;;;;;;5010569;28;20459;-70
2021/12/28 00:12:37;;;;;;;25.40;18.07;;;8.30;99.90;;;;;;5009112;28;20038;-70
2021/12/28 00:15:19;;;;;;;25.33;18.23;;;8.70;99.90;;;;;;5010308;28;20493;-70
2021/12/28 00:17:59;;;;;;;27.13;19.33;;;8.60;99.90;;;;;;4999270;28;20030;-70
2021/12/28 00:20:25;;;;;;;29.97;19.77;;;;;;;;;;5009434;28;20030;-70
2021/12/28 00:22:50;;;;;;;27.87;17.47;;;8.40;99.90;;;;;;5009994;28;20037;-70
2021/12/28 00:25:16;;;;;;;25.67;17.17;;;8.20;99.90;;;;;;5010124;28;20045;-70
2021/12/28 00:27:42;;;;;;;24.07;17.00;;;;;;;;;;5008986;28;20037;-70
2021/12/28 00:30:08;;;;;;;26.37;16.67;;;8.20;99.90;;;;;;5010350;28;20041;-70
2021/12/28 00:32:34;;;;;;;26.20;16.10;;;8.20;99.90;;;;;;5010054;28;20030;-70
2021/12/28 00:34:59;;;;;;;21.30;13.63;;;8.00;99.90;;;;;;5025136;28;20463;-70
2021/12/28 00:37:25;;;;;;;23.50;14.87;;;;;;;;;;5009683;28;20260;-70
2021/12/28 00:39:51;;;;;;;18.67;13.93;;;8.00;99.90;;;;;;5010233;28;20033;-70
2021/12/28 00:42:16;;;;;;;22.97;13.67;;;7.70;99.90;;;;;;5024019;28;20459;-70
2021/12/28 00:44:42;;;;;;;30.93;14.37;;;;;;;;;;5024600;28;20061;-70
2021/12/28 00:47:08;;;;;;;26.93;13.80;;;7.70;99.90;;;;;;4995883;28;20097;-70
2021/12/28 00:49:33;;;;;;;21.63;12.03;;;7.70;99.90;;;;;;4990304;28;20464;-70
2021/12/28 00:51:59;;;;;;;23.97;11.57;;;7.60;99.90;;;;;;4990470;28;20085;-70
2021/12/28 00:54:25;;;;;;;20.50;12.97;;;;;;;;;;5011021;28;20088;-70
2021/12/28 00:56:50;;;;;;;18.63;12.53;;;7.60;99.90;;;;;;5008821;28;20050;-70
2021/12/28 00:59:16;;;;;;;28.53;13.57;;;7.90;99.90;;;;;;5010099;28;20041;-70
2021/12/28 01:01:41;;;;;;;25.27;11.67;;;7.50;99.90;;;;;;5007812;28;20034;-70
2021/12/28 01:04:07;;;;;;;26.23;12.07;;;7.50;99.90;;;;;;5003964;28;20041;-70
2021/12/28 01:06:32;;;;;;;26.40;11.80;;;7.60;99.90;;;;;;4993352;28;20025;-70
2021/12/28 01:08:58;;;;;;;22.10;11.60;;;;;;;;;;5009763;28;20430;-70
2021/12/28 01:11:24;;;;;;;28.13;12.20;;;7.50;99.90;;;;;;5001748;28;20038;-70
2021/12/28 01:13:50;;;;;;;19.27;10.93;;;;;;;;;;4989868;28;20376;-70
2021/12/28 01:16:16;;;;;;;23.67;11.80;;;7.60;99.90;;;;;;5006892;28;20076;-70
2021/12/28 01:18:42;;;;;;;28.97;12.90;;;7.40;99.90;;;;;;5008436;28;20021;-71
2021/12/28 01:21:08;;;;;;;20.73;11.17;;;7.40;99.90;;;;;;5008670;28;20022;-70
2021/12/28 01:23:34;;;;;;;23.93;11.73;;;;;;;;;;5008243;28;20071;-70
2021/12/28 01:25:59;;;;;;;29.93;12.23;;;7.30;99.90;;;;;;5007940;28;20522;-70
2021/12/28 01:28:25;;;;;;;26.27;11.40;;;;;;;;;;5008613;28;20060;-70
2021/12/28 01:30:51;;;;;;;22.20;11.87;;;6.80;99.90;;;;;;5008095;28;20026;-70
2021/12/28 01:33:17;;;;;;;17.43;10.67;;;;;;;;;;5008903;28;20483;-70
2021/12/28 01:35:43;;;;;;;28.33;12.87;;;;;;;;;;5007878;28;20530;-72
2021/12/28 01:38:09;;;;;;;25.70;12.50;;;7.30;99.90;;;;;;5006315;28;20025;-72
2021/12/28 01:40:38;;;;;;;26.50;13.33;;;7.40;99.90;;;;;;5007999;28;20108;-70
2021/12/28 01:43:17;;;;;;;27.40;12.77;;;7.50;99.90;;;;;;5008525;28;20038;-71
2021/12/28 01:45:55;;;;;;;25.10;12.33;;;7.60;99.90;;;;;;5008696;28;20030;-70
2021/12/28 01:48:24;;;;;;;26.07;13.73;;;7.60;99.90;;;;;;4989849;28;20037;-70
2021/12/28 01:50:52;;;;;;;28.80;14.63;;;7.60;99.90;;;;;;4989538;28;20026;-70
2021/12/28 01:53:21;;;;;;;32.33;15.83;;;7.60;99.90;;;;;;5002495;28;20045;-70
2021/12/28 01:55:52;;;;;;;27.57;13.87;;;7.80;99.90;;;;;;5008439;28;20042;-71
2021/12/28 01:58:18;;;;;;;24.67;13.40;;;;;;;;;;5009200;28;20422;-70
2021/12/28 02:00:46;;;;;;;26.80;13.73;;;7.80;99.90;;;;;;5008181;28;20026;-70
2021/12/28 02:03:14;;;;;;;24.43;12.30;;;7.70;99.90;;;;;;5009153;28;20026;-70
2021/12/28 02:05:41;;;;;;;24.03;12.10;;;6.60;99.90;;;;;;5007932;28;20030;-70
2021/12/28 02:08:08;;;;;;;23.83;12.27;;;7.70;99.90;;;;;;5008694;28;20109;-70
2021/12/28 02:10:35;;;;;;;24.50;11.93;;;7.80;99.90;;;;;;5008904;28;20032;-70
2021/12/28 02:13:03;;;;;;;27.13;12.53;;;7.70;99.90;;;;;;5008584;28;20044;-71
2021/12/28 02:15:28;;;;;;;25.50;11.27;;;7.60;99.90;;;;;;5008852;28;20025;-70
2021/12/28 02:17:54;;;;;;;27.40;13.30;;;;;;;;;;5008538;28;20471;-70
2021/12/28 02:20:20;;;;;;;30.07;14.27;;;7.70;99.90;;;;;;5008974;28;20495;-70
2021/12/28 02:22:47;;;;;;;28.30;10.80;;;7.80;99.90;;;;;;5007664;28;20105;-71
2021/12/28 02:25:14;;;;;;;22.80;11.10;;;7.60;99.90;;;;;;5009025;28;20018;-70
2021/12/28 02:27:40;;;;;;;35.60;13.73;;;7.80;99.90;;;;;;5008228;28;20030;-70
2021/12/28 02:30:10;;;;;;;27.10;12.93;;;7.80;99.90;;;;;;5008817;28;20038;-71
2021/12/28 02:32:42;;;;;;;20.67;11.13;;;7.10;99.90;;;;;;5008683;28;20088;-70
2021/12/28 02:35:10;;;;;;;22.77;11.00;;;7.90;99.90;;;;;;5009042;28;20152;-70
2021/12/28 02:37:36;;;;;;;25.27;11.53;;;;;;;;;;5011429;28;20065;-70
2021/12/28 02:40:02;;;;;;;21.37;10.33;;;7.80;99.90;;;;;;5011672;28;20030;-70
2021/12/28 02:42:28;;;;;;;22.07;10.47;;;7.80;99.90;;;;;;5007433;28;20057;-70
2021/12/28 02:45:01;;;;;;;22.07;11.67;;;7.50;99.90;;;;;;5012141;28;20156;-70
2021/12/28 02:47:28;;;;;;;26.30;10.67;;;;;;;;;;5010820;28;20034;-70
2021/12/28 02:49:53;;;;;;;21.23;9.17;;;7.50;99.90;;;;;;5010844;28;20449;-70
2021/12/28 02:52:19;;;;;;;21.93;9.00;;;7.50;99.90;;;;;;5011808;28;20114;-70
2021/12/28 02:54:46;;;;;;;26.77;10.93;;;7.50;99.90;;;;;;5011439;28;20112;-70
2021/12/28 02:57:11;;;;;;;22.80;9.87;;;7.40;99.90;;;;;;5011765;28;20510;-70
2021/12/28 02:59:48;;;;;;;26.53;10.50;;;7.30;99.90;;;;;;5011604;28;20084;-70
2021/12/28 03:02:14;;;;;;;21.70;10.53;;;7.30;99.90;;;;;;5012125;28;20426;-70
2021/12/28 03:04:40;;;;;;;22.73;9.57;;;7.30;99.90;;;;;;5011251;28;20026;-70
2021/12/28 03:07:06;;;;;;;17.63;9.40;;;7.50;99.90;;;;;;5010800;28;20030;-70
2021/12/28 03:09:32;;;;;;;21.33;10.10;;;7.20;99.90;;;;;;5011915;28;20399;-70
2021/12/28 03:11:57;;;;;;;20.90;10.60;;;7.40;99.90;;;;;;5011057;28;20029;-70
2021/12/28 03:14:23;;;;;;;20.23;10.53;;;;;;;;;;5010876;28;20037;-70
2021/12/28 03:16:49;;;;;;;15.93;7.70;;;;;;;;;;5009461;28;20033;-70
2021/12/28 03:19:15;;;;;;;26.93;10.03;;;7.20;99.90;;;;;;5011528;28;20113;-70
2021/12/28 03:21:41;;;;;;;26.00;10.40;;;7.30;99.90;;;;;;5010502;28;20105;-70
2021/12/28 03:24:08;;;;;;;21.57;9.33;;;7.30;99.90;;;;;;5011239;28;20030;-70
2021/12/28 03:26:35;;;;;;;25.93;10.90;;;7.00;99.90;;;;;;4999454;28;20375;-70
2021/12/28 03:29:00;;;;;;;24.10;10.60;;;7.30;99.90;;;;;;5006283;28;20075;-70
2021/12/28 03:31:26;;;;;;;22.63;8.97;;;7.20;99.90;;;;;;5011119;28;20105;-70
2021/12/28 03:33:54;;;;;;;22.57;10.20;;;7.30;99.90;;;;;;5010921;28;20503;-70
2021/12/28 03:36:21;;;;;;;27.43;9.70;;;7.10;99.90;;;;;;5010293;28;20056;-70
2021/12/28 03:38:47;;;;;;;24.33;9.13;;;7.10;99.90;;;;;;5010456;28;20038;-71
2021/12/28 03:41:16;;;;;;;23.93;11.17;;;7.00;99.90;;;;;;5010787;28;20506;-70
2021/12/28 03:43:44;;;;;;;22.20;10.60;;;6.90;99.90;;;;;;5010541;28;20518;-70
2021/12/28 03:46:10;;;;;;;29.47;11.00;;;7.00;99.90;;;;;;5010999;28;20041;-70
2021/12/28 03:48:36;;;;;;;21.63;10.93;;;7.00;99.90;;;;;;5010616;28;20116;-70
2021/12/28 03:51:03;;;;;;;20.30;10.90;;;7.10;99.90;;;;;;5008976;28;20510;-70
2021/12/28 03:53:28;;;;;;;29.63;13.10;;;7.00;99.90;;;;;;5010279;28;20048;-70
2021/12/28 03:55:54;;;;;;;25.87;11.50;;;7.00;99.90;;;;;;5010826;28;20047;-70
2021/12/28 03:58:20;;;;;;;19.23;10.30;;;6.70;99.90;;;;;;5010892;28;20546;-71
2021/12/28 04:00:48;;;;;;;29.40;11.30;;;7.10;99.90;;;;;;5010294;28;20471;-70
2021/12/28 04:03:15;;;;;;;25.87;11.77;;;7.00;99.90;;;;;;5010444;28;20052;-70
2021/12/28 04:05:44;;;;;;;28.13;13.43;;;;;;;;;;5010398;28;20025;-70
2021/12/28 04:08:09;;;;;;;28.53;12.00;;;7.10;99.90;;;;;;5010456;28;20052;-70
2021/12/28 04:10:50;;;;;;;27.67;11.90;;;7.10;99.90;;;;;;5009471;28;20477;-70
2021/12/28 04:13:16;;;;;;;26.53;11.67;;;7.30;99.90;;;;;;4997170;28;20042;-70
2021/12/28 04:15:42;;;;;;;36.13;14.33;;;7.10;99.90;;;;;;5006256;28;20029;-70
2021/12/28 04:18:08;;;;;;;34.60;12.63;;;;;;;;;;5012812;28;20029;-70
2021/12/28 04:20:33;;;;;;;22.90;11.30;;;7.60;99.90;;;;;;5010287;28;20032;-70
2021/12/28 04:22:59;;;;;;;23.87;10.77;;;;;;;;;;5010345;28;20048;-70
2021/12/28 04:25:25;;;;;;;18.03;10.10;;;;;;;;;;5010060;28;20109;-70
2021/12/28 04:27:51;;;;;;;31.47;11.20;;;;;;;;;;5010339;28;20440;-70
2021/12/28 04:30:16;;;;;;;27.23;11.93;;;7.40;99.90;;;;;;5010577;28;20163;-70
2021/12/28 04:32:43;;;;;;;18.77;9.53;;;7.20;99.90;;;;;;5009216;28;20042;-70
2021/12/28 04:35:10;;;;;;;26.80;11.03;;;7.20;99.90;;;;;;5010437;28;20456;-70
2021/12/28 04:37:36;;;;;;;27.67;11.47;;;;;;;;;;5010146;28;20025;-70
2021/12/28 04:40:04;;;;;;;22.10;11.27;;;7.20;99.90;;;;;;5010077;28;20045;-70
2021/12/28 04:42:31;;;;;;;17.80;9.43;;;7.20;99.90;;;;;;5010074;28;20052;-70
2021/12/28 04:44:57;;;;;;;21.87;9.87;;;;;;;;;;5009771;28;20022;-70
2021/12/28 04:47:23;;;;;;;25.40;9.93;;;;;;;;;;5009231;28;20026;-70
2021/12/28 04:49:49;;;;;;;19.07;10.77;;;;;;;;;;5009530;28;20030;-70
2021/12/28 04:52:14;;;;;;;20.77;10.30;;;6.90;99.90;;;;;;5010030;28;20083;-70
2021/12/28 04:54:40;;;;;;;24.67;11.50;;;7.40;99.90;;;;;;5009438;28;20067;-71
2021/12/28 04:57:06;;;;;;;19.53;8.93;;;7.40;99.90;;;;;;5009148;28;20065;-70
2021/12/28 04:59:33;;;;;;;24.30;10.00;;;7.60;99.90;;;;;;4996471;28;20034;-70
2021/12/28 05:01:58;;;;;;;24.50;9.80;;;7.60;99.90;;;;;;4997642;28;20101;-70
2021/12/28 05:04:24;;;;;;;22.17;9.63;;;7.50;99.90;;;;;;5009761;28;20128;-70
2021/12/28 05:06:54;;;;;;;16.87;8.93;;;7.50;99.90;;;;;;5009557;28;20030;-70
2021/12/28 05:09:21;;;;;;;19.30;9.00;;;7.60;99.90;;;;;;5010190;28;20033;-70
2021/12/28 05:11:48;;;;;;;16.77;7.87;;;;;;;;;;5009375;28;20096;-70
2021/12/28 05:14:16;;;;;;;22.10;10.97;;;;;;;;;;5024812;28;20041;-70
2021/12/28 05:16:42;;;;;;;24.13;8.97;;;7.60;99.90;;;;;;4989256;28;20018;-70
2021/12/28 05:19:08;;;;;;;24.30;9.63;;;;;;;;;;4989835;28;20379;-70
2021/12/28 05:21:35;;;;;;;19.23;7.83;;;7.70;99.90;;;;;;4989767;28;20035;-70
2021/12/28 05:24:01;;;;;;;24.70;9.47;;;7.60;99.90;;;;;;4990166;28;20026;-70
2021/12/28 05:26:26;;;;;;;20.03;8.03;;;7.80;99.90;;;;;;4989759;28;20022;-70
2021/12/28 05:28:52;;;;;;;20.50;7.90;;;7.90;99.90;;;;;;4989840;28;20125;-70
2021/12/28 05:31:18;;;;;;;32.27;9.50;;;7.70;99.90;;;;;;4991149;28;20093;-70
2021/12/28 05:33:43;;;;;;;17.50;8.63;;;7.70;99.90;;;;;;5008787;28;20045;-70
2021/12/28 05:36:10;;;;;;;20.40;8.43;;;7.80;99.90;;;;;;5009390;28;20060;-70
2021/12/28 05:38:36;;;;;;;16.10;7.30;;;;;;;;;;5009260;28;20053;-70
2021/12/28 05:41:02;;;;;;;16.63;7.10;;;7.90;99.90;;;;;;5020499;28;20487;-70
2021/12/28 05:43:28;;;;;;;25.03;9.57;;;;;;;;;;5003982;28;20026;-70
2021/12/28 05:45:54;;;;;;;17.03;7.63;;;;;;;;;;4994652;28;20046;-70
2021/12/28 05:48:20;;;;;;;25.70;8.07;;;7.90;99.90;;;;;;5006523;28;20025;-70
2021/12/28 05:50:45;;;;;;;23.00;9.10;;;7.80;99.90;;;;;;5008776;28;20034;-70
2021/12/28 05:53:11;;;;;;;14.83;7.10;;;7.80;99.90;;;;;;5009280;28;20038;-70
2021/12/28 05:55:37;;;;;;;15.30;7.17;;;7.70;99.90;;;;;;5009008;28;20045;-71
2021/12/28 05:58:02;;;;;;;18.53;7.27;;;7.70;99.90;;;;;;5009224;28;20441;-70
2021/12/28 06:00:29;;;;;;;24.43;8.50;;;7.60;99.90;;;;;;5008125;28;20530;-70
2021/12/28 06:02:56;;;;;;;17.07;7.57;;;7.70;99.90;;;;;;5008738;28;20054;-70
2021/12/28 06:05:22;;;;;;;21.37;7.77;;;7.70;99.90;;;;;;5008815;28;20062;-70
2021/12/28 06:07:48;;;;;;;19.67;7.57;;;;;;;;;;5008577;28;20557;-70
2021/12/28 06:10:14;;;;;;;14.87;6.73;;;7.70;99.90;;;;;;5012900;28;20066;-70
2021/12/28 06:12:40;;;;;;;17.87;6.90;;;7.80;99.90;;;;;;5012215;28;20072;-70
2021/12/28 06:15:07;;;;;;;15.40;7.40;;;7.60;99.90;;;;;;5012022;28;20042;-70
2021/12/28 06:17:32;;;;;;;21.83;7.13;;;;;;;;;;5012271;28;20045;-70
2021/12/28 06:19:58;;;;;;;18.43;6.90;;;7.90;99.90;;;;;;5012372;28;20034;-70
2021/12/28 06:22:24;;;;;;;20.23;7.37;;;;;;;;;;5010019;28;20026;-70
2021/12/28 06:24:50;;;;;;;20.43;6.10;;;7.90;99.90;;;;;;5006781;28;20119;-70
2021/12/28 06:27:16;;;;;;;16.73;5.67;;;7.90;99.90;;;;;;5012023;28;20037;-70
2021/12/28 06:29:42;;;;;;;16.90;5.40;;;8.10;99.90;;;;;;5011555;28;20112;-71
2021/12/28 06:32:08;;;;;;;16.63;4.83;;;8.20;99.90;;;;;;5012154;28;20110;-70
2021/12/28 06:34:33;;;;;;;11.90;4.57;;;8.20;99.90;;;;;;5008883;28;20137;-70
2021/12/28 06:36:59;;;;;;;12.53;4.53;;;;;;;;;;5011747;28;20038;-70
2021/12/28 06:39:25;;;;;;;20.50;4.57;;;;;;;;;;5011470;28;20037;-70
2021/12/28 06:41:51;;;;;;;13.17;4.43;;;8.20;99.90;;;;;;5011872;28;20530;-70
2021/12/28 06:44:16;;;;;;;23.90;5.10;;;8.20;99.90;;;;;;5011889;28;20033;-70
2021/12/28 06:46:42;;;;;;;20.97;5.83;;;8.20;99.90;;;;;;5011547;28;20038;-70
2021/12/28 06:49:08;;;;;;;13.63;4.27;;;8.30;99.90;;;;;;5011753;28;20037;-70
2021/12/28 06:51:34;;;;;;;11.20;3.93;;;8.30;99.90;;;;;;5011502;28;20053;-70
2021/12/28 06:53:59;;;;;;;14.17;4.57;;;8.40;99.90;;;;;;5011443;28;20391;-70
2021/12/28 06:56:25;;;;;;;14.20;5.20;;;8.20;99.90;;;;;;5011239;28;20137;-71
2021/12/28 06:58:51;;;;;;;13.17;3.73;;;;;;;;;;5011261;28;20029;-70
2021/12/28 07:01:17;;;;;;;11.17;4.20;;;8.30;99.90;;;;;;5011760;28;20037;-69
2021/12/28 07:03:43;;;;;;;13.57;5.60;;;;;;;;;;5011235;28;20026;-70
2021/12/28 07:06:08;;;;;;;13.63;4.30;;;8.30;99.90;;;;;;5011450;28;20608;-69
2021/12/28 07:08:36;;;;;;;18.13;4.10;;;8.40;99.90;;;;;;5011262;28;20026;-70
2021/12/28 07:11:03;;;;;;;14.63;4.00;;;8.40;99.90;;;;;;5011168;28;20562;-70
2021/12/28 07:13:28;;;;;;;17.30;3.90;;;8.40;99.90;;;;;;5010731;28;20030;-69
2021/12/28 07:15:54;;;;;;;17.37;4.37;;;8.60;99.90;;;;;;4995258;28;20030;-69
2021/12/28 07:18:20;;;;;;;17.63;3.80;;;8.50;99.90;;;;;;4996634;28;20041;-69
2021/12/28 07:20:46;;;;;;;13.37;4.03;;;;;;;;;;4991044;28;20026;-69
2021/12/28 07:23:11;;;;;;;11.63;4.20;;;8.60;99.90;;;;;;5004272;28;20022;-69
2021/12/28 07:25:37;;;;;;;4.93;3.27;;;;;;;;;;5011601;28;20136;-69
2021/12/28 07:28:03;;;;;;;14.47;3.83;;;8.80;99.90;;;;;;5011205;28;20335;-69
2021/12/28 07:30:29;;;;;;;16.13;4.17;;;;;;;;;;5011256;28;20034;-69
2021/12/28 07:32:55;;;;;;;11.13;4.17;;;8.10;99.90;;;;;;5011234;28;20026;-69
2021/12/28 07:35:21;;;;;;;10.30;2.83;;;;;;;;;;5011325;28;20030;-69
2021/12/28 07:37:47;;;;;;;12.43;3.73;;;;;;;;;;5011046;28;20033;-69
2021/12/28 07:40:13;;;;;;;11.83;3.47;;;8.50;99.90;;;;;;5011410;28;20034;-69
2021/12/28 07:42:40;;;;;;;11.37;4.00;;;8.50;99.90;;;;;;5010517;28;20030;-69
2021/12/28 07:45:09;;;;;;;18.27;3.77;;;8.50;99.90;;;;;;5011417;28;20037;-69
2021/12/28 07:47:35;;;;;;;13.63;4.00;;;8.60;99.90;;;;;;5011166;28;20026;-70
2021/12/28 07:50:02;;;;;;;12.27;4.83;;;;;;;;;;5009677;28;20530;-70
2021/12/28 07:52:28;;;;;;;21.37;4.40;;;8.70;99.90;;;;;;5010999;28;20117;-69
2021/12/28 07:54:54;;;;;;;15.37;4.00;;;;;;;;;;5010897;28;20121;-70
2021/12/28 07:57:19;;;;;;;13.57;4.43;;;8.60;99.90;;;;;;5010668;28;20050;-70
2021/12/28 07:59:45;;;;;;;13.37;4.50;;;8.60;99.90;;;;;;5003327;28;20546;-69
2021/12/28 08:02:10;;;;;;;15.23;4.70;;;8.70;99.90;;;;;;5012173;28;20423;-69
2021/12/28 08:04:36;;;;;;;15.37;3.83;;;;;;;;;;4992058;28;20034;-69
2021/12/28 08:07:02;;;;;;;12.27;3.73;;;;;;;;;;5010614;28;20026;-69
2021/12/28 08:09:28;;;;;;;11.97;3.17;;;8.90;99.90;;;;;;5010413;28;20029;-69
2021/12/28 08:11:53;;;;;;;9.57;3.97;;;;;;;;;;5010285;28;20057;-68
2021/12/28 08:14:19;;;;;;;9.57;3.37;;;8.80;99.90;;;;;;5009936;28;20072;-69
2021/12/28 08:16:45;;;;;;;15.50;3.50;;;8.80;99.90;;;;;;5010973;28;20428;-68
2021/12/28 08:19:11;;;;;;;9.60;2.87;;;;;;;;;;5008758;28;20502;-68
2021/12/28 08:21:37;;;;;;;6.93;2.57;;;;;;;;;;5009263;28;20077;-68
2021/12/28 08:24:03;;;;;;;16.77;4.40;;;9.00;99.90;;;;;;5013602;28;20064;-68
2021/12/28 08:26:29;;;;;;;15.83;3.43;;;;;;;;;;5011651;28;20029;-68
2021/12/28 08:28:55;;;;;;;10.30;3.37;;;9.10;99.90;;;;;;5006839;28;20669;-68
2021/12/28 08:31:21;;;;;;;10.13;3.37;;;;;;;;;;5009624;28;20028;-68
2021/12/28 08:33:46;;;;;;;10.57;2.87;;;9.00;99.90;;;;;;5024418;28;20052;-68
2021/12/28 08:36:12;;;;;;;7.67;3.17;;;;;;;;;;5014999;28;20391;-68
2021/12/28 08:38:39;;;;;;;6.63;2.97;;;9.20;99.90;;;;;;5012701;28;20040;-68
2021/12/28 08:41:05;;;;;;;11.47;3.27;;;;;;;;;;5009256;28;20022;-68
2021/12/28 08:43:31;;;;;;;10.40;3.47;;;9.40;99.90;;;;;;5010114;28;20441;-69
2021/12/28 08:45:56;;;;;;;11.60;3.63;;;9.30;99.90;;;;;;5009549;28;20046;-69
2021/12/28 08:48:23;;;;;;;11.40;4.63;;;;;;;;;;5010819;28;20037;-69
2021/12/28 08:50:49;;;;;;;6.87;3.80;;;;;;;;;;5008293;28;20022;-69
2021/12/28 08:53:14;;;;;;;8.80;3.10;;;9.30;99.90;;;;;;5009822;28;20049;-69
2021/12/28 08:55:40;;;;;;;8.83;3.43;;;9.10;99.90;;;;;;5008671;28;20054;-69
2021/12/28 08:58:06;;;;;;;11.17;4.77;;;;;;;;;;5009380;28;20376;-69
2021/12/28 09:00:35;;;;;;;13.43;4.33;;;9.30;99.90;;;;;;5009572;28;20030;-69
2021/12/28 09:03:02;;;;;;;13.13;3.90;;;9.20;99.90;;;;;;5009417;28;20112;-69
2021/12/28 09:05:29;;;;;;;10.90;4.30;;;9.10;99.90;;;;;;5010143;28;20491;-69
2021/12/28 09:07:56;;;;;;;10.57;4.83;;;9.30;99.90;;;;;;5008480;28;20049;-68
2021/12/28 09:10:22;;;;;;;13.57;5.23;;;9.40;99.90;;;;;;5008907;28;20037;-69
2021/12/28 09:12:48;;;;;;;9.03;5.50;;;;;;;;;;5008230;28;20026;-69
2021/12/28 09:15:14;;;;;;;9.57;4.73;;;9.50;99.90;;;;;;5008642;28;20042;-69
2021/12/28 09:17:41;;;;;;;9.23;4.40;;;11.40;99.90;;;;;;5008340;28;20386;-69
2021/12/28 09:20:11;;;;;;;12.60;4.63;;;9.50;99.90;;;;;;5023047;28;20398;-68
2021/12/28 09:22:37;;;;;;;9.90;4.83;;;9.50;99.90;;;;;;5006562;28;20117;-68
2021/12/28 09:25:03;;;;;;;13.00;5.67;;;9.60;99.90;;;;;;5013991;28;20038;-68
2021/12/28 09:27:29;;;;;;;7.87;3.90;;;;;;;;;;5027942;22;20029;31
2021/12/28 09:29:55;;;;;;;6.73;4.27;;;9.10;99.90;;;;;;4964065;28;20093;-67
2021/12/28 09:32:20;;;;;;;7.50;4.40;;;9.30;99.90;;;;;;4967777;28;20033;-67
2021/12/28 09:34:49;;;;;;;8.30;4.33;;;9.60;99.90;;;;;;4968350;28;20042;-67
2021/12/28 09:37:14;;;;;;;5.97;4.00;;;9.40;99.90;;;;;;4968708;28;20387;-66
2021/12/28 09:39:40;;;;;;;5.20;3.53;;;9.40;99.90;;;;;;4968863;28;20031;-65
2021/12/28 09:42:07;;;;;;;9.60;5.00;;;9.50;99.90;;;;;;4969210;28;20518;-66
2021/12/28 09:44:34;;;;;;;9.57;5.03;;;9.60;99.90;;;;;;4968980;28;20055;-66
2021/12/28 09:47:01;;;;;;;7.37;4.40;;;9.60;99.90;;;;;;4969001;28;20034;-66
2021/12/28 09:49:28;;;;;;;8.70;4.50;;;9.60;99.90;;;;;;4968039;28;20499;-68
2021/12/28 09:51:55;;;;;;;12.07;4.73;;;9.70;99.90;;;;;;4968297;28;20469;-69
2021/12/28 09:54:28;;;;;;;6.67;4.63;;;9.60;99.90;;;;;;4968962;28;20063;-69
2021/12/28 09:56:56;;;;;;;8.07;5.07;;;9.70;99.90;;;;;;4968859;28;20420;-67
2021/12/28 09:59:23;;;;;;;6.10;4.37;;;9.50;99.90;;;;;;4969246;28;20473;-67
2021/12/28 10:01:49;;;;;;;6.03;4.47;;;;;;;;;;4968648;28;20031;-67
2021/12/28 10:04:16;;;;;;;7.40;4.80;;;9.60;99.90;;;;;;4969236;28;20465;-67
2021/12/28 10:06:43;;;;;;;5.73;5.07;;;9.70;99.90;;;;;;4966046;28;20030;-66
2021/12/28 10:09:16;;;;;;;7.23;5.23;;;9.70;99.90;;;;;;4968961;28;20045;-67
2021/12/28 10:11:53;;;;;;;6.93;5.10;;;9.60;99.90;;;;;;4968660;28;20575;-67
2021/12/28 10:14:20;;;;;;;7.60;6.00;;;9.80;99.90;;;;;;4969162;28;20042;-66
2021/12/28 10:16:50;;;;;;;8.73;6.47;;;9.90;99.90;;;;;;4968242;28;20146;-67
2021/12/28 10:19:34;;;;;;;8.13;5.97;;;9.70;99.90;;;;;;4969119;28;20030;-67
2021/12/28 10:22:22;;;;;;;8.32;6.10;;;9.80;99.90;;;;;;4968343;28;20034;-67
2021/12/28 10:24:53;;;;;;;6.73;5.30;;;9.90;99.90;;;;;;4968084;28;20074;-67
2021/12/28 10:27:21;;;;;;;8.07;6.50;;;10.00;99.90;;;;;;4968529;28;20023;-67
2021/12/28 10:29:47;;;;;;;7.07;6.40;;;10.10;99.90;;;;;;4966158;28;20046;-67
2021/12/28 10:32:25;;;;;;;8.53;6.10;;;10.10;99.90;;;;;;4966783;28;20433;-67
2021/12/28 10:34:54;;;;;;;6.17;5.57;;;10.10;99.90;;;;;;4968053;28;20072;-67
2021/12/28 10:37:33;;;;;;;7.57;6.00;;;10.20;99.90;;;;;;4968235;28;20125;-67
2021/12/28 10:40:00;;;;;;;7.53;6.03;;;10.20;99.90;;;;;;4968113;28;20039;-67
2021/12/28 10:42:42;;;;;;;8.27;5.70;;;10.20;99.90;;;;;;4983076;28;20062;-67
2021/12/28 10:45:36;;;;;;;7.47;6.33;;;10.10;99.90;;;;;;4966884;28;20019;-67
2021/12/28 10:48:06;;;;;;;6.67;5.60;;;10.20;99.90;;;;;;4968118;28;20027;-67
2021/12/28 10:50:36;;;;;;;5.77;5.27;;;10.30;99.90;;;;;;4967739;28;20077;-67
2021/12/28 10:53:18;;;;;;;7.07;4.70;;;10.20;99.90;;;;;;4967943;28;20019;-67
2021/12/28 10:55:46;;;;;;;6.80;6.10;;;10.20;99.90;;;;;;4966177;28;20081;-67
2021/12/28 10:58:21;;;;;;;6.10;5.50;;;10.20;99.90;;;;;;4971515;28;20027;-67
2021/12/28 11:00:47;;;;;;;6.60;5.80;;;10.30;99.90;;;;;;4969210;28;20037;-67
2021/12/28 11:03:17;;;;;;;6.47;5.87;;;10.40;99.90;;;;;;4971612;28;20027;-67
2021/12/28 11:05:48;;;;;;;7.13;5.37;;;10.00;99.90;;;;;;4970912;28;20129;-67
2021/12/28 11:08:14;;;;;;;7.00;6.30;;;;;;;;;;4971953;28;20019;-67
2021/12/28 11:10:43;;;;;;;6.03;5.27;;;10.30;99.90;;;;;;4971470;28;20042;-67
2021/12/28 11:13:09;;;;;;;7.20;5.43;;;10.40;99.90;;;;;;4971368;28;20370;-67
2021/12/28 11:15:38;;;;;;;7.87;6.80;;;;;;;;;;4971141;28;20070;-67
2021/12/28 11:18:18;;;;;;;7.77;6.17;;;10.40;99.90;;;;;;4972130;28;20317;-67
2021/12/28 11:20:44;;;;;;;7.13;6.20;;;10.40;99.90;;;;;;4968232;28;20037;-67
2021/12/28 11:23:13;;;;;;;6.70;6.10;;;10.40;99.90;;;;;;4971451;28;20035;-67
2021/12/28 11:25:39;;;;;;;7.00;6.30;;;10.30;99.90;;;;;;4971433;28;20027;-67
2021/12/28 11:28:15;;;;;;;7.37;6.10;;;10.20;99.90;;;;;;4971721;28;20095;-67
2021/12/28 11:31:05;;;;;;;7.40;6.70;;;10.20;99.90;;;;;;4971210;28;20027;-67
2021/12/28 11:33:44;;;;;;;7.37;5.70;;;10.30;99.90;;;;;;4971124;28;20035;-67
2021/12/28 11:36:11;;;;;;;7.10;6.37;;;10.30;99.90;;;;;;4971477;28;20356;-67
2021/12/28 11:38:37;;;;;;;6.53;5.90;;;10.50;99.90;;;;;;4971629;28;20055;-67
2021/12/28 11:41:04;;;;;;;7.23;6.00;;;10.30;99.90;;;;;;4970936;28;20023;-67
2021/12/28 11:43:32;;;;;;;9.10;6.73;;;10.40;99.90;;;;;;4962804;28;20118;-67
2021/12/28 11:45:58;;;;;;;6.50;5.40;;;10.50;99.90;;;;;;4971008;28;20476;-67
2021/12/28 11:48:23;;;;;;;7.00;6.30;;;10.50;99.90;;;;;;4970322;28;20085;-67
2021/12/28 11:50:50;;;;;;;7.90;6.57;;;;;;;;;;4970304;28;20045;-67
2021/12/28 11:53:16;;;;;;;9.97;6.17;;;10.60;99.90;;;;;;4970802;28;20030;-68
2021/12/28 11:55:43;;;;;;;8.47;6.47;;;10.70;99.90;;;;;;4970044;28;20037;-67
2021/12/28 11:58:09;;;;;;;7.47;5.10;;;10.20;99.90;;;;;;4970031;28;20027;-67
2021/12/28 12:00:39;;;;;;;9.83;6.30;;;10.50;99.90;;;;;;4967901;28;20089;-67
2021/12/28 12:03:06;;;;;;;6.43;5.80;;;10.40;99.90;;;;;;4970207;28;20041;-68
2021/12/28 12:05:33;;;;;;;10.70;6.23;;;10.50;99.90;;;;;;4970828;28;20025;-67
2021/12/28 12:08:10;;;;;;;6.45;5.70;;;10.50;99.90;;;;;;4970727;28;20085;-67
2021/12/28 12:10:41;;;;;;;6.97;6.23;;;10.40;99.90;;;;;;4970372;28;20065;-67
2021/12/28 12:13:19;;;;;;;7.03;6.30;;;10.50;99.90;;;;;;4970524;28;20025;-67
2021/12/28 12:15:51;;;;;;;5.87;4.67;;;10.50;99.90;;;;;;4970545;28;20027;-67
2021/12/28 12:18:18;;;;;;;7.63;5.03;;;10.30;99.90;;;;;;4962631;28;20826;-67
2021/12/28 12:20:50;;;;;;;6.00;4.93;;;10.00;99.90;;;;;;4951139;28;20895;-67
2021/12/28 12:23:19;;;;;;;5.07;4.33;;;10.30;99.90;;;;;;4951609;28;20028;-67
2021/12/28 12:25:48;;;;;;;5.17;4.43;;;10.40;99.90;;;;;;4951206;28;20082;-67
2021/12/28 12:28:14;;;;;;;4.27;3.87;;;10.40;99.90;;;;;;4951231;29;20039;-67
2021/12/28 12:30:44;;;;;;;5.47;4.28;;;10.70;99.90;;;;;;4951946;28;20087;-69
2021/12/28 12:33:12;;;;;;;4.67;3.13;;;10.40;99.90;;;;;;4969515;28;20027;-67
2021/12/28 12:36:08;;;;;;;3.63;3.00;;;10.40;99.90;;;;;;4970003;28;20046;-67
2021/12/28 12:38:36;;;;;;;3.87;2.77;;;10.30;99.90;;;;;;4965374;28;20142;-67
2021/12/28 12:41:18;;;;;;;4.63;2.10;;;10.30;99.90;;;;;;4969959;28;20499;-67
2021/12/28 12:43:53;;;;;;;4.30;1.80;;;10.30;99.90;;;;;;4968998;28;20031;-67
2021/12/28 12:46:32;;;;;;;6.97;2.03;;;10.20;99.90;;;;;;4968318;28;20022;-67
2021/12/28 12:49:00;;;;;;;5.17;2.43;;;10.00;99.90;;;;;;4970156;28;20550;-68
2021/12/28 12:51:29;;;;;;;5.73;2.40;;;10.20;99.90;;;;;;4963699;28;20057;-67
2021/12/28 12:54:12;;;;;;;11.43;2.90;;;10.00;99.90;;;;;;4965382;28;20067;-67
2021/12/28 12:57:03;;;;;;;11.00;2.63;;;10.00;99.90;;;;;;4966890;28;20436;-67
2021/12/28 12:59:40;;;;;;;7.53;2.30;;;10.00;99.90;;;;;;4969589;28;20506;-67
2021/12/28 13:02:21;;;;;;;8.87;2.57;;;9.80;99.90;;;;;;4969700;28;20029;-67
2021/12/28 13:04:50;;;;;;;10.47;3.17;;;9.80;99.90;;;;;;4968965;28;20026;-67